sensor_id;sensor_type;location;lat;lon;timestamp;P1;durP1;ratioP1;P2;durP2;ratioP2
2191;SDS011;1102;49.718;11.902;2022-09-09T00:00:41;3.37;;;2.20;;
2191;SDS011;1102;49.718;11.902;2022-09-09T00:08:07;6.53;;;2.23;;
2191;SDS011;1102;49.718;11.902;2022-09-09T00:10:40;2.60;;;1.80;;
2191;SDS011;1102;49.718;11.902;2022-09-09T00:23:40;3.40;;;2.23;;
2191;SDS011;1102;49.718;11.902;2022-09-09T00:28:39;6.00;;;2.37;;
2191;SDS011;1102;49.718;11.902;2022-09-09T00:31:11;4.00;;;2.33;;
2191;SDS011;1102;49.718;11.902;2022-09-09T00:33:39;6.60;;;2.63;;
2191;SDS011;1102;49.718;11.902;2022-09-09T00:36:09;8.67;;;3.27;;
2191;SDS011;1102;49.718;11.902;2022-09-09T00:38:37;3.47;;;2.10;;
2191;SDS011;1102;49.718;11.902;2022-09-09T00:43:38;3.33;;;2.40;;
2191;SDS011;1102;49.718;11.902;2022-09-09T00:46:12;5.73;;;2.53;;
2191;SDS011;1102;49.718;11.902;2022-09-09T00:56:21;3.00;;;2.13;;
2191;SDS011;1102;49.718;11.902;2022-09-09T00:58:58;4.13;;;1.70;;
2191;SDS011;1102;49.718;11.902;2022-09-09T01:01:26;10.23;;;2.10;;
2191;SDS011;1102;49.718;11.902;2022-09-09T01:03:53;3.87;;;1.80;;
2191;SDS011;1102;49.718;11.902;2022-09-09T01:06:22;4.47;;;2.13;;
2191;SDS011;1102;49.718;11.902;2022-09-09T01:14:13;1.93;;;1.60;;
2191;SDS011;1102;49.718;11.902;2022-09-09T01:16:42;1.90;;;1.60;;
2191;SDS011;1102;49.718;11.902;2022-09-09T01:19:09;1.50;;;1.40;;
2191;SDS011;1102;49.718;11.902;2022-09-09T01:21:45;1.67;;;1.40;;
2191;SDS011;1102;49.718;11.902;2022-09-09T01:27:07;3.00;;;1.87;;
2191;SDS011;1102;49.718;11.902;2022-09-09T01:29:34;4.00;;;2.40;;
2191;SDS011;1102;49.718;11.902;2022-09-09T01:32:03;1.93;;;1.57;;
2191;SDS011;1102;49.718;11.902;2022-09-09T01:34:48;2.00;;;1.80;;
2191;SDS011;1102;49.718;11.902;2022-09-09T01:37:16;4.33;;;2.13;;
2191;SDS011;1102;49.718;11.902;2022-09-09T01:39:43;2.63;;;2.07;;
2191;SDS011;1102;49.718;11.902;2022-09-09T01:42:14;2.50;;;2.20;;
2191;SDS011;1102;49.718;11.902;2022-09-09T01:44:42;1.90;;;1.50;;
2191;SDS011;1102;49.718;11.902;2022-09-09T01:47:09;2.80;;;1.77;;
2191;SDS011;1102;49.718;11.902;2022-09-09T01:49:51;2.60;;;2.37;;
2191;SDS011;1102;49.718;11.902;2022-09-09T01:52:23;6.67;;;2.20;;
2191;SDS011;1102;49.718;11.902;2022-09-09T01:54:50;3.50;;;2.40;;
2191;SDS011;1102;49.718;11.902;2022-09-09T01:57:55;4.50;;;2.13;;
2191;SDS011;1102;49.718;11.902;2022-09-09T02:00:13;6.80;;;2.10;;
2191;SDS011;1102;49.718;11.902;2022-09-09T02:05:38;1.93;;;1.60;;
2191;SDS011;1102;49.718;11.902;2022-09-09T02:08:18;2.90;;;2.00;;
2191;SDS011;1102;49.718;11.902;2022-09-09T02:11:03;4.00;;;2.17;;
2191;SDS011;1102;49.718;11.902;2022-09-09T02:13:38;5.77;;;2.10;;
2191;SDS011;1102;49.718;11.902;2022-09-09T02:16:26;2.43;;;2.23;;
2191;SDS011;1102;49.718;11.902;2022-09-09T02:18:56;8.60;;;2.00;;
2191;SDS011;1102;49.718;11.902;2022-09-09T02:21:33;3.43;;;2.47;;
2191;SDS011;1102;49.718;11.902;2022-09-09T02:24:02;14.37;;;2.83;;
2191;SDS011;1102;49.718;11.902;2022-09-09T02:26:34;2.13;;;1.90;;
2191;SDS011;1102;49.718;11.902;2022-09-09T02:29:05;2.00;;;1.70;;
2191;SDS011;1102;49.718;11.902;2022-09-09T02:31:33;5.00;;;2.50;;
2191;SDS011;1102;49.718;11.902;2022-09-09T02:34:05;1.80;;;1.70;;
2191;SDS011;1102;49.718;11.902;2022-09-09T02:36:34;3.00;;;2.10;;
2191;SDS011;1102;49.718;11.902;2022-09-09T02:39:01;4.80;;;2.50;;
2191;SDS011;1102;49.718;11.902;2022-09-09T02:41:32;4.90;;;2.20;;
2191;SDS011;1102;49.718;11.902;2022-09-09T02:44:00;5.87;;;2.83;;
2191;SDS011;1102;49.718;11.902;2022-09-09T02:46:34;3.67;;;2.20;;
2191;SDS011;1102;49.718;11.902;2022-09-09T02:49:03;3.83;;;1.57;;
2191;SDS011;1102;49.718;11.902;2022-09-09T02:54:12;5.83;;;2.40;;
2191;SDS011;1102;49.718;11.902;2022-09-09T02:56:41;1.90;;;1.80;;
2191;SDS011;1102;49.718;11.902;2022-09-09T02:59:11;3.60;;;2.10;;
2191;SDS011;1102;49.718;11.902;2022-09-09T03:01:38;4.33;;;1.93;;
2191;SDS011;1102;49.718;11.902;2022-09-09T03:04:06;2.37;;;2.17;;
2191;SDS011;1102;49.718;11.902;2022-09-09T03:06:33;3.40;;;2.40;;
2191;SDS011;1102;49.718;11.902;2022-09-09T03:09:08;4.53;;;1.83;;
2191;SDS011;1102;49.718;11.902;2022-09-09T03:11:37;3.67;;;2.90;;
2191;SDS011;1102;49.718;11.902;2022-09-09T03:14:05;3.20;;;2.17;;
2191;SDS011;1102;49.718;11.902;2022-09-09T03:16:31;2.80;;;2.43;;
2191;SDS011;1102;49.718;11.902;2022-09-09T03:19:01;8.50;;;2.27;;
2191;SDS011;1102;49.718;11.902;2022-09-09T03:21:28;7.07;;;2.23;;
2191;SDS011;1102;49.718;11.902;2022-09-09T03:23:54;2.80;;;1.93;;
2191;SDS011;1102;49.718;11.902;2022-09-09T03:26:21;3.30;;;2.30;;
2191;SDS011;1102;49.718;11.902;2022-09-09T03:28:48;5.00;;;2.80;;
2191;SDS011;1102;49.718;11.902;2022-09-09T03:31:17;6.67;;;2.20;;
2191;SDS011;1102;49.718;11.902;2022-09-09T03:33:44;3.07;;;1.87;;
2191;SDS011;1102;49.718;11.902;2022-09-09T03:36:14;2.37;;;2.17;;
2191;SDS011;1102;49.718;11.902;2022-09-09T03:38:41;3.03;;;2.20;;
2191;SDS011;1102;49.718;11.902;2022-09-09T03:41:07;4.60;;;2.60;;
2191;SDS011;1102;49.718;11.902;2022-09-09T03:43:36;2.47;;;2.27;;
2191;SDS011;1102;49.718;11.902;2022-09-09T03:46:04;3.83;;;2.40;;
2191;SDS011;1102;49.718;11.902;2022-09-09T03:48:30;2.70;;;2.50;;
2191;SDS011;1102;49.718;11.902;2022-09-09T03:50:58;3.70;;;2.17;;
2191;SDS011;1102;49.718;11.902;2022-09-09T03:53:28;3.30;;;2.43;;
2191;SDS011;1102;49.718;11.902;2022-09-09T03:55:56;3.10;;;2.90;;
2191;SDS011;1102;49.718;11.902;2022-09-09T03:58:26;4.87;;;2.83;;
2191;SDS011;1102;49.718;11.902;2022-09-09T04:00:58;11.53;;;2.37;;
2191;SDS011;1102;49.718;11.902;2022-09-09T04:03:26;3.50;;;1.87;;
2191;SDS011;1102;49.718;11.902;2022-09-09T04:05:54;2.40;;;2.20;;
2191;SDS011;1102;49.718;11.902;2022-09-09T04:08:22;2.20;;;2.00;;
2191;SDS011;1102;49.718;11.902;2022-09-09T04:10:52;3.43;;;1.90;;
2191;SDS011;1102;49.718;11.902;2022-09-09T04:13:19;5.50;;;2.10;;
2191;SDS011;1102;49.718;11.902;2022-09-09T04:15:50;2.53;;;2.33;;
2191;SDS011;1102;49.718;11.902;2022-09-09T04:18:17;2.30;;;2.10;;
2191;SDS011;1102;49.718;11.902;2022-09-09T04:20:49;3.20;;;2.60;;
2191;SDS011;1102;49.718;11.902;2022-09-09T04:23:18;4.93;;;2.60;;
2191;SDS011;1102;49.718;11.902;2022-09-09T04:25:47;2.90;;;2.70;;
2191;SDS011;1102;49.718;11.902;2022-09-09T04:28:14;2.93;;;2.33;;
2191;SDS011;1102;49.718;11.902;2022-09-09T04:30:42;2.53;;;2.33;;
2191;SDS011;1102;49.718;11.902;2022-09-09T04:33:09;7.53;;;2.47;;
2191;SDS011;1102;49.718;11.902;2022-09-09T04:35:37;2.83;;;2.00;;
2191;SDS011;1102;49.718;11.902;2022-09-09T04:38:04;2.53;;;1.90;;
2191;SDS011;1102;49.718;11.902;2022-09-09T04:40:31;4.00;;;2.47;;
2191;SDS011;1102;49.718;11.902;2022-09-09T04:43:00;9.40;;;3.00;;
2191;SDS011;1102;49.718;11.902;2022-09-09T04:45:27;9.37;;;4.37;;
2191;SDS011;1102;49.718;11.902;2022-09-09T04:47:53;4.80;;;2.23;;
2191;SDS011;1102;49.718;11.902;2022-09-09T04:50:20;7.80;;;5.50;;
2191;SDS011;1102;49.718;11.902;2022-09-09T04:52:59;5.43;;;4.60;;
2191;SDS011;1102;49.718;11.902;2022-09-09T04:55:27;4.83;;;3.90;;
2191;SDS011;1102;49.718;11.902;2022-09-09T04:57:53;7.30;;;4.87;;
2191;SDS011;1102;49.718;11.902;2022-09-09T05:00:20;9.37;;;6.10;;
2191;SDS011;1102;49.718;11.902;2022-09-09T05:02:48;10.03;;;6.80;;
2191;SDS011;1102;49.718;11.902;2022-09-09T05:05:14;9.73;;;8.70;;
2191;SDS011;1102;49.718;11.902;2022-09-09T05:07:41;10.87;;;9.80;;
2191;SDS011;1102;49.718;11.902;2022-09-09T05:10:08;10.93;;;8.23;;
2191;SDS011;1102;49.718;11.902;2022-09-09T05:12:34;21.07;;;9.97;;
2191;SDS011;1102;49.718;11.902;2022-09-09T05:15:01;15.43;;;11.10;;
2191;SDS011;1102;49.718;11.902;2022-09-09T05:17:28;11.03;;;9.97;;
2191;SDS011;1102;49.718;11.902;2022-09-09T05:19:55;10.13;;;9.13;;
2191;SDS011;1102;49.718;11.902;2022-09-09T05:22:21;13.57;;;11.23;;
2191;SDS011;1102;49.718;11.902;2022-09-09T05:24:52;11.37;;;10.30;;
2191;SDS011;1102;49.718;11.902;2022-09-09T05:27:19;9.20;;;8.20;;
2191;SDS011;1102;49.718;11.902;2022-09-09T05:29:47;9.70;;;8.80;;
2191;SDS011;1102;49.718;11.902;2022-09-09T05:32:14;10.80;;;9.37;;
2191;SDS011;1102;49.718;11.902;2022-09-09T05:34:45;10.07;;;9.07;;
2191;SDS011;1102;49.718;11.902;2022-09-09T05:37:13;10.80;;;9.80;;
2191;SDS011;1102;49.718;11.902;2022-09-09T05:39:40;10.23;;;9.23;;
2191;SDS011;1102;49.718;11.902;2022-09-09T05:42:06;11.07;;;9.97;;
2191;SDS011;1102;49.718;11.902;2022-09-09T05:44:33;11.10;;;9.97;;
2191;SDS011;1102;49.718;11.902;2022-09-09T05:47:00;10.40;;;9.37;;
2191;SDS011;1102;49.718;11.902;2022-09-09T05:49:27;12.10;;;10.90;;
2191;SDS011;1102;49.718;11.902;2022-09-09T05:51:54;12.10;;;10.47;;
2191;SDS011;1102;49.718;11.902;2022-09-09T05:54:22;11.00;;;10.03;;
2191;SDS011;1102;49.718;11.902;2022-09-09T05:56:50;11.60;;;10.57;;
2191;SDS011;1102;49.718;11.902;2022-09-09T05:59:19;11.07;;;9.97;;
2191;SDS011;1102;49.718;11.902;2022-09-09T06:01:45;10.20;;;9.20;;
2191;SDS011;1102;49.718;11.902;2022-09-09T06:04:19;10.77;;;9.60;;
2191;SDS011;1102;49.718;11.902;2022-09-09T06:06:50;11.00;;;9.40;;
2191;SDS011;1102;49.718;11.902;2022-09-09T06:09:19;11.23;;;10.10;;
2191;SDS011;1102;49.718;11.902;2022-09-09T06:11:46;10.77;;;9.70;;
2191;SDS011;1102;49.718;11.902;2022-09-09T06:14:13;11.63;;;10.20;;
2191;SDS011;1102;49.718;11.902;2022-09-09T06:16:44;11.87;;;10.67;;
2191;SDS011;1102;49.718;11.902;2022-09-09T06:19:20;14.00;;;12.50;;
2191;SDS011;1102;49.718;11.902;2022-09-09T06:21:47;12.30;;;11.20;;
2191;SDS011;1102;49.718;11.902;2022-09-09T06:24:15;12.00;;;10.77;;
2191;SDS011;1102;49.718;11.902;2022-09-09T06:26:43;12.93;;;11.63;;
2191;SDS011;1102;49.718;11.902;2022-09-09T06:29:12;16.63;;;12.70;;
2191;SDS011;1102;49.718;11.902;2022-09-09T06:31:41;16.03;;;13.83;;
2191;SDS011;1102;49.718;11.902;2022-09-09T06:34:34;18.33;;;16.43;;
2191;SDS011;1102;49.718;11.902;2022-09-09T06:37:02;15.73;;;14.13;;
2191;SDS011;1102;49.718;11.902;2022-09-09T06:39:35;15.97;;;12.80;;
2191;SDS011;1102;49.718;11.902;2022-09-09T06:42:02;15.47;;;13.53;;
2191;SDS011;1102;49.718;11.902;2022-09-09T06:44:53;13.93;;;11.53;;
2191;SDS011;1102;49.718;11.902;2022-09-09T06:47:27;16.20;;;12.60;;
2191;SDS011;1102;49.718;11.902;2022-09-09T06:49:56;14.20;;;12.27;;
2191;SDS011;1102;49.718;11.902;2022-09-09T06:52:23;14.33;;;12.83;;
2191;SDS011;1102;49.718;11.902;2022-09-09T06:54:52;14.77;;;11.20;;
2191;SDS011;1102;49.718;11.902;2022-09-09T06:57:20;20.77;;;15.00;;
2191;SDS011;1102;49.718;11.902;2022-09-09T07:00:04;19.87;;;14.37;;
2191;SDS011;1102;49.718;11.902;2022-09-09T07:02:31;16.73;;;14.30;;
2191;SDS011;1102;49.718;11.902;2022-09-09T07:04:58;13.73;;;12.20;;
2191;SDS011;1102;49.718;11.902;2022-09-09T07:07:25;16.70;;;13.23;;
2191;SDS011;1102;49.718;11.902;2022-09-09T07:09:51;16.27;;;12.30;;
2191;SDS011;1102;49.718;11.902;2022-09-09T07:12:18;18.40;;;13.00;;
2191;SDS011;1102;49.718;11.902;2022-09-09T07:14:52;14.10;;;12.80;;
2191;SDS011;1102;49.718;11.902;2022-09-09T07:17:19;14.77;;;13.27;;
2191;SDS011;1102;49.718;11.902;2022-09-09T07:19:45;13.33;;;12.00;;
2191;SDS011;1102;49.718;11.902;2022-09-09T07:22:13;14.93;;;13.40;;
2191;SDS011;1102;49.718;11.902;2022-09-09T07:24:41;13.43;;;12.13;;
2191;SDS011;1102;49.718;11.902;2022-09-09T07:27:08;13.63;;;12.03;;
2191;SDS011;1102;49.718;11.902;2022-09-09T07:29:35;12.77;;;11.47;;
2191;SDS011;1102;49.718;11.902;2022-09-09T07:32:02;14.10;;;12.77;;
2191;SDS011;1102;49.718;11.902;2022-09-09T07:34:34;15.50;;;12.50;;
2191;SDS011;1102;49.718;11.902;2022-09-09T07:37:01;13.50;;;11.80;;
2191;SDS011;1102;49.718;11.902;2022-09-09T07:39:29;14.43;;;11.57;;
2191;SDS011;1102;49.718;11.902;2022-09-09T07:41:55;14.57;;;13.07;;
2191;SDS011;1102;49.718;11.902;2022-09-09T07:44:23;15.17;;;13.00;;
2191;SDS011;1102;49.718;11.902;2022-09-09T07:47:01;15.70;;;12.97;;
2191;SDS011;1102;49.718;11.902;2022-09-09T07:49:34;15.23;;;13.07;;
2191;SDS011;1102;49.718;11.902;2022-09-09T07:52:03;14.77;;;13.20;;
2191;SDS011;1102;49.718;11.902;2022-09-09T07:54:39;14.87;;;13.30;;
2191;SDS011;1102;49.718;11.902;2022-09-09T07:57:06;14.17;;;12.57;;
2191;SDS011;1102;49.718;11.902;2022-09-09T07:59:35;17.57;;;13.47;;
2191;SDS011;1102;49.718;11.902;2022-09-09T08:02:02;17.33;;;14.13;;
2191;SDS011;1102;49.718;11.902;2022-09-09T08:04:31;18.13;;;16.30;;
2191;SDS011;1102;49.718;11.902;2022-09-09T08:06:59;15.53;;;13.23;;
2191;SDS011;1102;49.718;11.902;2022-09-09T08:09:31;14.40;;;12.77;;
2191;SDS011;1102;49.718;11.902;2022-09-09T08:12:18;15.63;;;12.83;;
2191;SDS011;1102;49.718;11.902;2022-09-09T08:14:45;15.83;;;13.77;;
2191;SDS011;1102;49.718;11.902;2022-09-09T08:17:12;15.07;;;13.67;;
2191;SDS011;1102;49.718;11.902;2022-09-09T08:19:38;15.50;;;13.90;;
2191;SDS011;1102;49.718;11.902;2022-09-09T08:22:10;12.90;;;11.53;;
2191;SDS011;1102;49.718;11.902;2022-09-09T08:24:38;15.83;;;12.70;;
2191;SDS011;1102;49.718;11.902;2022-09-09T08:27:06;14.60;;;12.40;;
2191;SDS011;1102;49.718;11.902;2022-09-09T08:29:32;14.17;;;12.77;;
2191;SDS011;1102;49.718;11.902;2022-09-09T08:32:00;13.43;;;11.90;;
2191;SDS011;1102;49.718;11.902;2022-09-09T08:34:28;11.53;;;10.33;;
2191;SDS011;1102;49.718;11.902;2022-09-09T08:36:59;10.93;;;8.37;;
2191;SDS011;1102;49.718;11.902;2022-09-09T08:39:33;10.00;;;9.10;;
2191;SDS011;1102;49.718;11.902;2022-09-09T08:51:54;12.03;;;10.90;;
2191;SDS011;1102;49.718;11.902;2022-09-09T08:54:23;11.57;;;10.40;;
2191;SDS011;1102;49.718;11.902;2022-09-09T08:57:23;11.67;;;10.57;;
2191;SDS011;1102;49.718;11.902;2022-09-09T08:59:54;10.47;;;9.47;;
2191;SDS011;1102;49.718;11.902;2022-09-09T09:02:34;9.07;;;8.27;;
2191;SDS011;1102;49.718;11.902;2022-09-09T09:05:11;13.33;;;7.10;;
2191;SDS011;1102;49.718;11.902;2022-09-09T09:07:44;6.23;;;5.73;;
2191;SDS011;1102;49.718;11.902;2022-09-09T09:15:43;6.30;;;5.70;;
2191;SDS011;1102;49.718;11.902;2022-09-09T09:18:12;5.93;;;5.43;;
2191;SDS011;1102;49.718;11.902;2022-09-09T09:23:26;7.03;;;5.80;;
2191;SDS011;1102;49.718;11.902;2022-09-09T09:25:59;5.67;;;5.17;;
2191;SDS011;1102;49.718;11.902;2022-09-09T09:28:28;6.10;;;5.30;;
2191;SDS011;1102;49.718;11.902;2022-09-09T09:31:03;4.93;;;4.43;;
2191;SDS011;1102;49.718;11.902;2022-09-09T09:35:59;4.83;;;4.43;;
2191;SDS011;1102;49.718;11.902;2022-09-09T09:38:27;4.47;;;4.07;;
2191;SDS011;1102;49.718;11.902;2022-09-09T09:41:14;6.90;;;3.80;;
2191;SDS011;1102;49.718;11.902;2022-09-09T09:43:41;4.10;;;3.70;;
2191;SDS011;1102;49.718;11.902;2022-09-09T09:46:22;4.00;;;3.27;;
2191;SDS011;1102;49.718;11.902;2022-09-09T09:49:03;5.67;;;3.80;;
2191;SDS011;1102;49.718;11.902;2022-09-09T09:51:32;5.23;;;4.50;;
2191;SDS011;1102;49.718;11.902;2022-09-09T09:54:21;7.10;;;4.80;;
2191;SDS011;1102;49.718;11.902;2022-09-09T09:56:52;5.93;;;5.43;;
2191;SDS011;1102;49.718;11.902;2022-09-09T09:59:20;5.33;;;4.40;;
2191;SDS011;1102;49.718;11.902;2022-09-09T10:02:14;4.93;;;4.23;;
2191;SDS011;1102;49.718;11.902;2022-09-09T10:04:42;4.90;;;4.50;;
2191;SDS011;1102;49.718;11.902;2022-09-09T10:07:13;5.53;;;4.27;;
2191;SDS011;1102;49.718;11.902;2022-09-09T10:09:42;4.00;;;3.70;;
2191;SDS011;1102;49.718;11.902;2022-09-09T10:15:02;3.97;;;3.20;;
2191;SDS011;1102;49.718;11.902;2022-09-09T10:17:37;2.80;;;2.20;;
2191;SDS011;1102;49.718;11.902;2022-09-09T10:28:29;4.67;;;1.80;;
2191;SDS011;1102;49.718;11.902;2022-09-09T10:33:48;3.97;;;2.37;;
2191;SDS011;1102;49.718;11.902;2022-09-09T10:38:45;2.27;;;1.73;;
2191;SDS011;1102;49.718;11.902;2022-09-09T10:41:15;2.13;;;1.70;;
2191;SDS011;1102;49.718;11.902;2022-09-09T10:43:50;2.70;;;2.50;;
2191;SDS011;1102;49.718;11.902;2022-09-09T10:49:28;3.93;;;3.20;;
2191;SDS011;1102;49.718;11.902;2022-09-09T10:57:13;4.07;;;3.17;;
2191;SDS011;1102;49.718;11.902;2022-09-09T10:59:45;3.83;;;3.53;;
2191;SDS011;1102;49.718;11.902;2022-09-09T11:04:42;2.80;;;2.30;;
2191;SDS011;1102;49.718;11.902;2022-09-09T11:07:13;7.73;;;3.50;;
2191;SDS011;1102;49.718;11.902;2022-09-09T11:09:47;3.10;;;2.90;;
2191;SDS011;1102;49.718;11.902;2022-09-09T11:12:15;3.50;;;2.53;;
2191;SDS011;1102;49.718;11.902;2022-09-09T11:14:54;3.90;;;2.53;;
2191;SDS011;1102;49.718;11.902;2022-09-09T11:17:24;5.13;;;3.53;;
2191;SDS011;1102;49.718;11.902;2022-09-09T11:19:53;3.00;;;2.80;;
2191;SDS011;1102;49.718;11.902;2022-09-09T11:40:04;3.00;;;2.43;;
2191;SDS011;1102;49.718;11.902;2022-09-09T11:42:35;4.57;;;2.47;;
2191;SDS011;1102;49.718;11.902;2022-09-09T11:47:37;4.07;;;3.00;;
2191;SDS011;1102;49.718;11.902;2022-09-09T11:50:26;2.80;;;2.00;;
2191;SDS011;1102;49.718;11.902;2022-09-09T11:53:04;2.43;;;1.80;;
2191;SDS011;1102;49.718;11.902;2022-09-09T11:55:31;2.13;;;2.03;;
2191;SDS011;1102;49.718;11.902;2022-09-09T11:58:03;7.57;;;1.87;;
2191;SDS011;1102;49.718;11.902;2022-09-09T12:00:51;3.20;;;2.00;;
2191;SDS011;1102;49.718;11.902;2022-09-09T12:05:57;2.50;;;1.67;;
2191;SDS011;1102;49.718;11.902;2022-09-09T12:08:26;1.67;;;1.47;;
2191;SDS011;1102;49.718;11.902;2022-09-09T12:10:57;1.83;;;1.70;;
2191;SDS011;1102;49.718;11.902;2022-09-09T12:13:26;2.67;;;1.63;;
2191;SDS011;1102;49.718;11.902;2022-09-09T12:18:32;5.30;;;1.40;;
2191;SDS011;1102;49.718;11.902;2022-09-09T12:21:08;1.70;;;1.60;;
2191;SDS011;1102;49.718;11.902;2022-09-09T12:26:07;3.13;;;1.87;;
2191;SDS011;1102;49.718;11.902;2022-09-09T12:29:04;1.70;;;1.33;;
2191;SDS011;1102;49.718;11.902;2022-09-09T12:34:38;1.80;;;1.60;;
2191;SDS011;1102;49.718;11.902;2022-09-09T12:37:57;1.87;;;1.67;;
2191;SDS011;1102;49.718;11.902;2022-09-09T12:39:56;1.60;;;1.50;;
2191;SDS011;1102;49.718;11.902;2022-09-09T12:42:24;6.80;;;1.70;;
2191;SDS011;1102;49.718;11.902;2022-09-09T12:45:00;1.27;;;1.13;;
2191;SDS011;1102;49.718;11.902;2022-09-09T12:50:02;2.43;;;1.57;;
2191;SDS011;1102;49.718;11.902;2022-09-09T12:52:31;2.80;;;1.40;;
2191;SDS011;1102;49.718;11.902;2022-09-09T12:54:58;2.03;;;1.57;;
2191;SDS011;1102;49.718;11.902;2022-09-09T12:57:33;2.23;;;1.67;;
2191;SDS011;1102;49.718;11.902;2022-09-09T13:00:05;3.83;;;2.10;;
2191;SDS011;1102;49.718;11.902;2022-09-09T13:02:32;4.03;;;2.23;;
2191;SDS011;1102;49.718;11.902;2022-09-09T13:05:05;4.50;;;1.70;;
2191;SDS011;1102;49.718;11.902;2022-09-09T13:07:32;2.03;;;1.80;;
2191;SDS011;1102;49.718;11.902;2022-09-09T13:09:59;2.73;;;1.60;;
2191;SDS011;1102;49.718;11.902;2022-09-09T13:12:25;2.80;;;1.73;;
2191;SDS011;1102;49.718;11.902;2022-09-09T13:14:53;2.70;;;1.60;;
2191;SDS011;1102;49.718;11.902;2022-09-09T13:17:24;3.87;;;2.10;;
2191;SDS011;1102;49.718;11.902;2022-09-09T13:19:51;2.93;;;2.00;;
2191;SDS011;1102;49.718;11.902;2022-09-09T13:24:48;5.43;;;1.40;;
2191;SDS011;1102;49.718;11.902;2022-09-09T13:27:35;3.60;;;1.90;;
2191;SDS011;1102;49.718;11.902;2022-09-09T13:30:21;2.43;;;1.80;;
2191;SDS011;1102;49.718;11.902;2022-09-09T13:33:02;2.67;;;1.63;;
2191;SDS011;1102;49.718;11.902;2022-09-09T13:35:28;5.87;;;2.00;;
2191;SDS011;1102;49.718;11.902;2022-09-09T13:37:55;3.20;;;1.37;;
2191;SDS011;1102;49.718;11.902;2022-09-09T13:40:22;2.63;;;1.67;;
2191;SDS011;1102;49.718;11.902;2022-09-09T13:42:56;1.60;;;1.20;;
2191;SDS011;1102;49.718;11.902;2022-09-09T13:45:24;3.40;;;2.17;;
2191;SDS011;1102;49.718;11.902;2022-09-09T13:47:53;2.50;;;1.20;;
2191;SDS011;1102;49.718;11.902;2022-09-09T13:50:25;2.30;;;1.63;;
2191;SDS011;1102;49.718;11.902;2022-09-09T13:52:53;3.17;;;1.57;;
2191;SDS011;1102;49.718;11.902;2022-09-09T13:55:20;4.20;;;1.37;;
2191;SDS011;1102;49.718;11.902;2022-09-09T13:57:52;1.50;;;1.37;;
2191;SDS011;1102;49.718;11.902;2022-09-09T14:00:22;2.73;;;1.47;;
2191;SDS011;1102;49.718;11.902;2022-09-09T14:02:50;1.70;;;1.30;;
2191;SDS011;1102;49.718;11.902;2022-09-09T14:05:18;4.00;;;2.00;;
2191;SDS011;1102;49.718;11.902;2022-09-09T14:07:45;2.10;;;1.20;;
2191;SDS011;1102;49.718;11.902;2022-09-09T14:10:20;1.97;;;1.20;;
2191;SDS011;1102;49.718;11.902;2022-09-09T14:12:48;2.90;;;1.10;;
2191;SDS011;1102;49.718;11.902;2022-09-09T14:15:14;1.87;;;1.10;;
2191;SDS011;1102;49.718;11.902;2022-09-09T14:17:42;2.50;;;1.37;;
2191;SDS011;1102;49.718;11.902;2022-09-09T14:20:09;3.00;;;1.50;;
2191;SDS011;1102;49.718;11.902;2022-09-09T14:22:38;1.13;;;1.03;;
2191;SDS011;1102;49.718;11.902;2022-09-09T14:25:05;4.70;;;1.10;;
2191;SDS011;1102;49.718;11.902;2022-09-09T14:27:32;3.50;;;1.20;;
2191;SDS011;1102;49.718;11.902;2022-09-09T14:29:58;5.40;;;1.93;;
2191;SDS011;1102;49.718;11.902;2022-09-09T14:32:26;1.30;;;1.20;;
2191;SDS011;1102;49.718;11.902;2022-09-09T14:34:53;2.03;;;1.47;;
2191;SDS011;1102;49.718;11.902;2022-09-09T14:37:20;2.67;;;1.40;;
2191;SDS011;1102;49.718;11.902;2022-09-09T14:39:46;1.03;;;0.90;;
2191;SDS011;1102;49.718;11.902;2022-09-09T14:42:13;1.10;;;0.90;;
2191;SDS011;1102;49.718;11.902;2022-09-09T14:44:40;3.37;;;1.40;;
2191;SDS011;1102;49.718;11.902;2022-09-09T14:47:07;2.50;;;1.23;;
2191;SDS011;1102;49.718;11.902;2022-09-09T14:49:34;3.83;;;1.43;;
2191;SDS011;1102;49.718;11.902;2022-09-09T14:52:01;3.13;;;1.40;;
2191;SDS011;1102;49.718;11.902;2022-09-09T14:54:27;1.60;;;1.50;;
2191;SDS011;1102;49.718;11.902;2022-09-09T14:56:54;2.17;;;1.30;;
2191;SDS011;1102;49.718;11.902;2022-09-09T14:59:20;3.67;;;1.50;;
2191;SDS011;1102;49.718;11.902;2022-09-09T15:01:48;2.10;;;1.10;;
2191;SDS011;1102;49.718;11.902;2022-09-09T15:04:15;3.57;;;1.40;;
2191;SDS011;1102;49.718;11.902;2022-09-09T15:06:42;2.50;;;1.03;;
2191;SDS011;1102;49.718;11.902;2022-09-09T15:09:13;2.63;;;1.23;;
2191;SDS011;1102;49.718;11.902;2022-09-09T15:11:40;2.23;;;1.10;;
2191;SDS011;1102;49.718;11.902;2022-09-09T15:14:07;2.33;;;1.87;;
2191;SDS011;1102;49.718;11.902;2022-09-09T15:16:34;4.43;;;1.50;;
2191;SDS011;1102;49.718;11.902;2022-09-09T15:19:01;1.67;;;1.57;;
2191;SDS011;1102;49.718;11.902;2022-09-09T15:21:30;2.43;;;1.07;;
2191;SDS011;1102;49.718;11.902;2022-09-09T15:23:57;2.97;;;1.50;;
2191;SDS011;1102;49.718;11.902;2022-09-09T15:26:24;2.53;;;1.40;;
2191;SDS011;1102;49.718;11.902;2022-09-09T15:28:51;4.43;;;1.40;;
2191;SDS011;1102;49.718;11.902;2022-09-09T15:31:21;4.93;;;1.50;;
2191;SDS011;1102;49.718;11.902;2022-09-09T15:36:19;3.13;;;1.17;;
2191;SDS011;1102;49.718;11.902;2022-09-09T15:38:46;2.53;;;1.60;;
2191;SDS011;1102;49.718;11.902;2022-09-09T15:41:13;6.40;;;1.97;;
2191;SDS011;1102;49.718;11.902;2022-09-09T15:43:43;2.60;;;1.77;;
2191;SDS011;1102;49.718;11.902;2022-09-09T15:46:55;4.33;;;1.63;;
2191;SDS011;1102;49.718;11.902;2022-09-09T15:48:57;3.10;;;1.70;;
2191;SDS011;1102;49.718;11.902;2022-09-09T15:51:24;4.00;;;1.60;;
2191;SDS011;1102;49.718;11.902;2022-09-09T15:54:10;2.67;;;1.70;;
2191;SDS011;1102;49.718;11.902;2022-09-09T15:56:38;3.10;;;1.67;;
2191;SDS011;1102;49.718;11.902;2022-09-09T15:59:04;1.77;;;1.47;;
2191;SDS011;1102;49.718;11.902;2022-09-09T16:01:31;2.90;;;1.57;;
2191;SDS011;1102;49.718;11.902;2022-09-09T16:03:58;2.97;;;1.97;;
2191;SDS011;1102;49.718;11.902;2022-09-09T16:06:26;2.40;;;1.50;;
2191;SDS011;1102;49.718;11.902;2022-09-09T16:08:55;5.87;;;1.60;;
2191;SDS011;1102;49.718;11.902;2022-09-09T16:11:23;2.40;;;1.60;;
2191;SDS011;1102;49.718;11.902;2022-09-09T16:13:51;3.37;;;1.77;;
2191;SDS011;1102;49.718;11.902;2022-09-09T16:16:19;1.43;;;1.33;;
2191;SDS011;1102;49.718;11.902;2022-09-09T16:18:49;1.77;;;1.67;;
2191;SDS011;1102;49.718;11.902;2022-09-09T16:23:43;1.53;;;1.43;;
2191;SDS011;1102;49.718;11.902;2022-09-09T16:26:14;3.07;;;1.80;;
2191;SDS011;1102;49.718;11.902;2022-09-09T16:28:41;3.47;;;1.63;;
2191;SDS011;1102;49.718;11.902;2022-09-09T16:31:08;2.13;;;1.30;;
2191;SDS011;1102;49.718;11.902;2022-09-09T16:33:36;1.60;;;1.50;;
2191;SDS011;1102;49.718;11.902;2022-09-09T16:36:10;2.50;;;1.33;;
2191;SDS011;1102;49.718;11.902;2022-09-09T16:38:38;1.97;;;1.60;;
2191;SDS011;1102;49.718;11.902;2022-09-09T16:41:05;2.60;;;1.30;;
2191;SDS011;1102;49.718;11.902;2022-09-09T16:43:33;3.20;;;1.40;;
2191;SDS011;1102;49.718;11.902;2022-09-09T16:45:59;1.90;;;1.70;;
2191;SDS011;1102;49.718;11.902;2022-09-09T16:48:33;3.53;;;1.80;;
2191;SDS011;1102;49.718;11.902;2022-09-09T16:51:04;2.70;;;2.20;;
2191;SDS011;1102;49.718;11.902;2022-09-09T16:53:31;4.50;;;1.93;;
2191;SDS011;1102;49.718;11.902;2022-09-09T16:55:58;3.60;;;1.50;;
2191;SDS011;1102;49.718;11.902;2022-09-09T16:58:24;3.97;;;2.30;;
2191;SDS011;1102;49.718;11.902;2022-09-09T17:00:51;2.13;;;1.90;;
2191;SDS011;1102;49.718;11.902;2022-09-09T17:03:23;3.10;;;1.77;;
2191;SDS011;1102;49.718;11.902;2022-09-09T17:05:50;5.53;;;2.33;;
2191;SDS011;1102;49.718;11.902;2022-09-09T17:08:16;2.50;;;2.00;;
2191;SDS011;1102;49.718;11.902;2022-09-09T17:10:43;2.27;;;1.63;;
2191;SDS011;1102;49.718;11.902;2022-09-09T17:13:09;7.90;;;2.57;;
2191;SDS011;1102;49.718;11.902;2022-09-09T17:15:40;5.20;;;1.80;;
2191;SDS011;1102;49.718;11.902;2022-09-09T17:18:09;4.43;;;1.77;;
2191;SDS011;1102;49.718;11.902;2022-09-09T17:20:36;31.47;;;4.57;;
2191;SDS011;1102;49.718;11.902;2022-09-09T17:23:12;140.30;;;23.70;;